Time,TemperatureF,DewpointF,PressureIn,WindDirection,WindDirectionDegrees,WindSpeedMPH,WindSpeedGustMPH,Humidity,HourlyPrecipIn,Conditions,Clouds,dailyrainin,SolarRadiationWatts/m^2,SoftwareType,DateUTC
2013-08-15 00:01:00,77.4,75.9,30.00,West,267,0.0,2.0,95,0.00,,,0.30,0,Wunderground v.1.15,2013-08-15 04:01:00,
2013-08-15 00:02:00,77.4,75.9,30.00,West,268,0.0,2.0,95,0.00,,,0.30,0,Wunderground v.1.15,2013-08-15 04:02:00,
2013-08-15 00:03:00,77.4,75.9,30.00,West,268,0.0,2.0,95,0.00,,,0.30,0,Wunderground v.1.15,2013-08-15 04:03:00,
2013-08-15 00:05:00,77.4,75.9,30.00,West,267,0.0,2.0,95,0.00,,,0.30,0,Wunderground v.1.15,2013-08-15 04:05:00,
2013-08-15 00:11:00,77.4,75.9,30.00,West,268,0.0,2.0,95,0.00,,,0.30,0,Wunderground v.1.15,2013-08-15 04:11:00,
2013-08-15 00:13:00,77.5,76.0,30.00,West,267,0.0,2.0,95,0.00,,,0.30,0,Wunderground v.1.15,2013-08-15 04:13:00,
2013-08-15 00:19:00,77.6,76.1,30.00,West,267,1.0,2.0,95,0.00,,,0.30,0,Wunderground v.1.15,2013-08-15 04:19:00,
2013-08-15 00:24:00,77.8,76.3,30.01,West,263,1.0,5.0,95,0.00,,,0.30,0,Wunderground v.1.15,2013-08-15 04:24:00,
2013-08-15 00:29:00,78.8,77.6,30.01,WSW,249,2.0,5.0,96,0.00,,,0.30,0,Wunderground v.1.15,2013-08-15 04:29:00,
2013-08-15 00:35:00,79.1,77.9,30.00,WSW,249,3.0,4.0,96,0.00,,,0.00,0,Wunderground v.1.15,2013-08-15 04:35:00,
2013-08-15 00:40:00,79.1,77.5,30.00,WSW,249,1.0,1.0,95,0.00,,,0.00,0,Wunderground v.1.15,2013-08-15 04:40:00,
2013-08-15 00:46:00,79.3,77.7,30.00,WSW,249,1.0,4.0,95,0.00,,,0.00,0,Wunderground v.1.15,2013-08-15 04:46:00,
2013-08-15 00:51:00,79.5,77.9,30.00,WSW,249,1.0,1.0,95,0.00,,,0.00,0,Wunderground v.1.15,2013-08-15 04:51:00,
2013-08-15 00:56:00,79.3,77.4,29.99,WSW,249,0.0,1.0,94,0.00,,,0.00,0,Wunderground v.1.15,2013-08-15 04:56:00,
2013-08-15 01:01:00,79.1,77.2,29.99,WSW,249,0.0,6.0,94,0.00,,,0.00,0,Wunderground v.1.15,2013-08-15 05:01:00,
2013-08-15 01:07:00,78.9,76.7,29.99,WSW,249,1.0,6.0,93,0.00,,,0.00,0,Wunderground v.1.15,2013-08-15 05:07:00,
2013-08-15 01:12:00,78.7,76.5,29.98,WSW,249,0.0,6.0,93,0.00,,,0.00,0,Wunderground v.1.15,2013-08-15 05:12:00,
2013-08-15 01:18:00,78.4,76.2,29.98,WSW,249,0.0,6.0,93,0.00,,,0.00,0,Wunderground v.1.15,2013-08-15 05:18:00,
2013-08-15 01:23:00,78.2,76.0,29.98,WSW,249,0.0,6.0,93,0.00,,,0.00,0,Wunderground v.1.15,2013-08-15 05:23:00,
2013-08-15 01:28:00,78.0,76.1,29.98,WSW,249,0.0,6.0,94,0.00,,,0.00,0,Wunderground v.1.15,2013-08-15 05:28:00,
2013-08-15 01:33:00,78.0,76.1,29.98,SW,230,2.0,6.0,94,0.00,,,0.00,0,Wunderground v.1.15,2013-08-15 05:33:00,
2013-08-15 01:39:00,78.4,76.8,29.98,SSW,207,4.0,6.0,95,0.00,,,0.00,0,Wunderground v.1.15,2013-08-15 05:39:00,
2013-08-15 01:44:00,78.7,77.1,29.97,SSW,207,4.0,5.0,95,0.00,,,0.00,0,Wunderground v.1.15,2013-08-15 05:44:00,
2013-08-15 01:50:00,79.2,77.3,29.97,SSW,207,5.0,6.0,94,0.00,,,0.00,0,Wunderground v.1.15,2013-08-15 05:50:00,
2013-08-15 01:55:00,79.6,77.7,29.98,SSW,200,5.0,7.0,94,0.00,,,0.00,0,Wunderground v.1.15,2013-08-15 05:55:00,
2013-08-15 02:00:00,79.9,78.0,29.97,SSW,200,8.0,10.0,94,0.00,,,0.00,0,Wunderground v.1.15,2013-08-15 06:00:00,
2013-08-15 02:06:00,79.9,77.7,29.97,SW,214,9.0,10.0,93,0.00,,,0.00,0,Wunderground v.1.15,2013-08-15 06:06:00,
2013-08-15 02:11:00,79.8,77.6,29.97,SSW,203,9.0,11.0,93,0.00,,,0.00,0,Wunderground v.1.15,2013-08-15 06:11:00,
2013-08-15 02:16:00,80.0,77.8,29.97,SSW,203,9.0,11.0,93,0.00,,,0.00,0,Wunderground v.1.15,2013-08-15 06:16:00,
2013-08-15 02:21:00,79.8,77.3,29.97,SSW,205,9.0,10.0,92,0.00,,,0.00,0,Wunderground v.1.15,2013-08-15 06:21:00,
2013-08-15 02:27:00,79.8,77.3,29.97,SW,221,9.0,11.0,92,0.00,,,0.00,0,Wunderground v.1.15,2013-08-15 06:27:00,
2013-08-15 02:32:00,79.6,76.7,29.97,SW,221,8.0,9.0,91,0.00,,,0.00,0,Wunderground v.1.15,2013-08-15 06:32:00,
2013-08-15 02:38:00,79.6,77.1,29.96,SW,221,7.0,9.0,92,0.00,,,0.00,0,Wunderground v.1.15,2013-08-15 06:38:00,
2013-08-15 02:43:00,79.4,76.9,29.96,SW,221,5.0,7.0,92,0.00,,,0.00,0,Wunderground v.1.15,2013-08-15 06:43:00,
2013-08-15 02:48:00,79.3,76.4,29.95,SW,222,5.0,7.0,91,0.00,,,0.00,0,Wunderground v.1.15,2013-08-15 06:48:00,
2013-08-15 02:53:00,79.3,76.4,29.95,SW,223,5.0,7.0,91,0.00,,,0.00,0,Wunderground v.1.15,2013-08-15 06:53:00,
2013-08-15 02:59:00,79.3,76.4,29.95,SW,229,5.0,8.0,91,0.00,,,0.00,0,Wunderground v.1.15,2013-08-15 06:59:00,
2013-08-15 03:04:00,79.3,76.4,29.95,SW,234,6.0,13.0,91,0.00,,,0.00,0,Wunderground v.1.15,2013-08-15 07:04:00,
2013-08-15 03:10:00,79.4,76.5,29.95,SW,236,5.0,13.0,91,0.00,,,0.00,0,Wunderground v.1.15,2013-08-15 07:10:00,
2013-08-15 03:16:00,79.3,76.1,29.95,SW,236,4.0,13.0,90,0.00,,,0.00,0,Wunderground v.1.15,2013-08-15 07:16:00,
2013-08-15 03:21:00,79.1,76.2,29.95,SW,236,4.0,13.0,91,0.00,,,0.00,0,Wunderground v.1.15,2013-08-15 07:21:00,
2013-08-15 03:27:00,79.1,75.9,29.94,SW,235,5.0,13.0,90,0.00,,,0.00,0,Wunderground v.1.15,2013-08-15 07:27:00,
2013-08-15 03:32:00,79.2,76.3,29.94,SW,232,5.0,13.0,91,0.00,,,0.00,0,Wunderground v.1.15,2013-08-15 07:32:00,
2013-08-15 03:37:00,79.3,76.4,29.95,SW,231,4.0,13.0,91,0.00,,,0.00,0,Wunderground v.1.15,2013-08-15 07:37:00,
2013-08-15 03:43:00,79.0,75.8,29.94,SW,231,3.0,4.0,90,0.00,,,0.00,0,Wunderground v.1.15,2013-08-15 07:43:00,
2013-08-15 03:48:00,78.6,75.4,29.94,SW,231,1.0,4.0,90,0.00,,,0.00,0,Wunderground v.1.15,2013-08-15 07:48:00,
2013-08-15 03:53:00,78.3,75.1,29.94,SW,231,0.0,4.0,90,0.00,,,0.00,0,Wunderground v.1.15,2013-08-15 07:53:00,
2013-08-15 03:59:00,78.2,75.4,29.94,SW,231,2.0,5.0,91,0.00,,,0.00,0,Wunderground v.1.15,2013-08-15 07:59:00,
2013-08-15 04:04:00,78.4,75.9,29.94,SW,231,3.0,8.0,92,0.00,,,0.00,0,Wunderground v.1.15,2013-08-15 08:04:00,
2013-08-15 04:09:00,78.4,75.9,29.94,SW,231,3.0,8.0,92,0.00,,,0.00,0,Wunderground v.1.15,2013-08-15 08:09:00,
2013-08-15 04:15:00,78.6,76.1,29.94,SW,231,3.0,8.0,92,0.00,,,0.00,0,Wunderground v.1.15,2013-08-15 08:15:00,
2013-08-15 04:20:00,78.7,76.2,29.93,SW,231,4.0,8.0,92,0.00,,,0.00,0,Wunderground v.1.15,2013-08-15 08:20:00,
2013-08-15 04:25:00,78.6,75.8,29.94,SW,231,4.0,8.0,91,0.00,,,0.00,0,Wunderground v.1.15,2013-08-15 08:25:00,
2013-08-15 04:31:00,78.7,75.8,29.94,SW,231,2.0,8.0,91,0.00,,,0.00,0,Wunderground v.1.15,2013-08-15 08:31:00,
2013-08-15 04:36:00,78.6,75.8,29.94,SW,231,1.0,8.0,91,0.00,,,0.00,0,Wunderground v.1.15,2013-08-15 08:36:00,
2013-08-15 04:41:00,78.5,75.3,29.94,SW,231,1.0,1.0,90,0.00,,,0.00,0,Wunderground v.1.15,2013-08-15 08:41:00,
2013-08-15 04:47:00,78.5,75.7,29.94,SW,231,2.0,2.0,91,0.00,,,0.00,0,Wunderground v.1.15,2013-08-15 08:47:00,
2013-08-15 04:53:00,78.5,75.3,29.94,SW,231,1.0,2.0,90,0.00,,,0.00,0,Wunderground v.1.15,2013-08-15 08:53:00,
2013-08-15 04:58:00,78.5,75.3,29.94,SW,231,1.0,4.0,90,0.00,,,0.00,0,Wunderground v.1.15,2013-08-15 08:58:00,
2013-08-15 05:03:00,78.4,75.2,29.95,SW,231,1.0,6.0,90,0.00,,,0.00,0,Wunderground v.1.15,2013-08-15 09:03:00,
2013-08-15 05:09:00,78.0,74.8,29.94,SW,231,0.0,6.0,90,0.00,,,0.00,0,Wunderground v.1.15,2013-08-15 09:09:00,
2013-08-15 05:14:00,77.6,74.8,29.95,SW,231,0.0,6.0,91,0.00,,,0.00,0,Wunderground v.1.15,2013-08-15 09:14:00,
2013-08-15 05:19:00,77.3,74.5,29.95,SW,231,0.0,6.0,91,0.00,,,0.00,0,Wunderground v.1.15,2013-08-15 09:19:00,
2013-08-15 05:25:00,77.0,74.5,29.95,SW,231,0.0,6.0,92,0.00,,,0.00,0,Wunderground v.1.15,2013-08-15 09:25:00,
2013-08-15 05:30:00,76.9,74.7,29.95,SW,231,1.0,6.0,93,0.00,,,0.00,0,Wunderground v.1.15,2013-08-15 09:30:00,
2013-08-15 05:35:00,77.3,75.1,29.95,SW,231,2.0,6.0,93,0.00,,,0.00,0,Wunderground v.1.15,2013-08-15 09:35:00,
2013-08-15 05:41:00,77.5,75.3,29.95,SW,231,2.0,2.0,93,0.00,,,0.00,0,Wunderground v.1.15,2013-08-15 09:41:00,
2013-08-15 05:47:00,77.1,74.6,29.95,SW,231,1.0,2.0,92,0.00,,,0.00,0,Wunderground v.1.15,2013-08-15 09:47:00,
2013-08-15 05:52:00,76.9,74.4,29.95,SW,231,0.0,2.0,92,0.00,,,0.00,0,Wunderground v.1.15,2013-08-15 09:52:00,
2013-08-15 05:57:00,76.8,74.6,29.96,SW,231,1.0,4.0,93,0.00,,,0.00,0,Wunderground v.1.15,2013-08-15 09:57:00,
2013-08-15 06:03:00,77.1,75.2,29.96,SW,231,2.0,5.0,94,0.00,,,0.00,0,Wunderground v.1.15,2013-08-15 10:03:00,
2013-08-15 06:08:00,77.6,75.7,29.96,SW,231,3.0,5.0,94,0.00,,,0.00,0,Wunderground v.1.15,2013-08-15 10:08:00,
2013-08-15 06:13:00,78.0,76.1,29.96,SW,231,4.0,5.0,94,0.00,,,0.00,0,Wunderground v.1.15,2013-08-15 10:13:00,
2013-08-15 06:19:00,78.3,76.1,29.96,SW,231,4.0,5.0,93,0.00,,,0.00,0,Wunderground v.1.15,2013-08-15 10:19:00,
2013-08-15 06:24:00,78.2,75.7,29.96,SW,231,2.0,5.0,92,0.00,,,0.00,0,Wunderground v.1.15,2013-08-15 10:24:00,
2013-08-15 06:29:00,77.6,75.1,29.96,SW,231,0.0,5.0,92,0.00,,,0.00,0,Wunderground v.1.15,2013-08-15 10:29:00,
2013-08-15 06:35:00,77.1,74.6,29.96,SW,231,0.0,5.0,92,0.00,,,0.00,0,Wunderground v.1.15,2013-08-15 10:35:00,
2013-08-15 06:40:00,76.9,74.7,29.96,SW,231,0.0,0.0,93,0.00,,,0.00,0,Wunderground v.1.15,2013-08-15 10:40:00,
2013-08-15 06:45:00,76.7,74.5,29.96,SW,231,0.0,2.0,93,0.00,,,0.00,0,Wunderground v.1.15,2013-08-15 10:45:00,
2013-08-15 06:51:00,76.5,74.6,29.96,SW,231,0.0,2.0,94,0.00,,,0.00,0,Wunderground v.1.15,2013-08-15 10:51:00,
2013-08-15 06:56:00,76.4,74.5,29.97,SW,231,1.0,2.0,94,0.00,,,0.00,0,Wunderground v.1.15,2013-08-15 10:56:00,
2013-08-15 07:02:00,76.4,74.5,29.97,SW,231,1.0,6.0,94,0.00,,,0.00,5,Wunderground v.1.15,2013-08-15 11:02:00,
2013-08-15 07:07:00,76.6,75.1,29.97,SW,231,3.0,6.0,95,0.00,,,0.00,11,Wunderground v.1.15,2013-08-15 11:07:00,
2013-08-15 07:13:00,77.3,75.8,29.97,SW,231,5.0,6.0,95,0.00,,,0.00,14,Wunderground v.1.15,2013-08-15 11:13:00,
2013-08-15 07:19:00,77.4,75.5,29.97,SW,231,4.0,6.0,94,0.00,,,0.00,16,Wunderground v.1.15,2013-08-15 11:19:00,
2013-08-15 07:24:00,77.3,75.4,29.97,SW,231,3.0,6.0,94,0.00,,,0.00,21,Wunderground v.1.15,2013-08-15 11:24:00,
2013-08-15 07:30:00,77.3,75.4,29.97,SW,231,3.0,6.0,94,0.00,,,0.00,32,Wunderground v.1.15,2013-08-15 11:30:00,
2013-08-15 07:35:00,77.5,75.6,29.97,SW,231,4.0,7.0,94,0.00,,,0.00,32,Wunderground v.1.15,2013-08-15 11:35:00,
2013-08-15 07:40:00,77.8,75.6,29.98,SW,231,5.0,5.0,93,0.00,,,0.00,37,Wunderground v.1.15,2013-08-15 11:40:00,
2013-08-15 07:46:00,77.9,75.4,29.98,SW,231,4.0,5.0,92,0.00,,,0.00,49,Wunderground v.1.15,2013-08-15 11:46:00,
2013-08-15 07:52:00,78.0,75.5,29.98,SW,231,2.0,2.0,92,0.00,,,0.00,76,Wunderground v.1.15,2013-08-15 11:52:00,
2013-08-15 07:57:00,78.2,75.7,29.98,SW,231,2.0,2.0,92,0.00,,,0.00,84,Wunderground v.1.15,2013-08-15 11:57:00,
2013-08-15 08:02:00,78.4,75.9,29.98,SW,231,2.0,5.0,92,0.00,,,0.00,109,Wunderground v.1.15,2013-08-15 12:02:00,
2013-08-15 08:08:00,78.6,76.1,29.98,SW,231,3.0,7.0,92,0.00,,,0.00,79,Wunderground v.1.15,2013-08-15 12:08:00,
2013-08-15 08:13:00,78.7,75.8,29.99,SW,231,4.0,7.0,91,0.00,,,0.00,93,Wunderground v.1.15,2013-08-15 12:13:00,
2013-08-15 08:18:00,78.7,75.8,29.99,SW,231,4.0,7.0,91,0.00,,,0.00,188,Wunderground v.1.15,2013-08-15 12:18:00,
2013-08-15 08:24:00,78.8,75.6,29.99,SW,224,4.0,7.0,90,0.00,,,0.00,121,Wunderground v.1.15,2013-08-15 12:24:00,
2013-08-15 08:29:00,78.9,76.0,29.99,SW,223,5.0,7.0,91,0.00,,,0.00,165,Wunderground v.1.15,2013-08-15 12:29:00,
2013-08-15 08:34:00,79.0,75.8,29.99,SSW,200,5.0,7.0,90,0.00,,,0.00,220,Wunderground v.1.15,2013-08-15 12:34:00,
2013-08-15 08:40:00,79.3,76.1,29.99,South,186,5.0,5.0,90,0.00,,,0.00,160,Wunderground v.1.15,2013-08-15 12:40:00,
2013-08-15 08:46:00,79.4,76.2,29.99,South,176,5.0,7.0,90,0.00,,,0.00,297,Wunderground v.1.15,2013-08-15 12:46:00,
2013-08-15 08:51:00,79.6,76.4,29.99,South,173,6.0,6.0,90,0.00,,,0.00,257,Wunderground v.1.15,2013-08-15 12:51:00,
2013-08-15 08:56:00,79.5,76.0,29.99,South,173,5.0,6.0,89,0.00,,,0.00,355,Wunderground v.1.15,2013-08-15 12:56:00,
2013-08-15 09:01:00,79.7,76.2,29.99,South,173,5.0,7.0,89,0.00,,,0.00,341,Wunderground v.1.15,2013-08-15 13:01:00,
2013-08-15 09:07:00,79.9,76.0,29.99,South,172,5.0,7.0,88,0.00,,,0.00,404,Wunderground v.1.15,2013-08-15 13:07:00,
2013-08-15 09:12:00,80.0,76.1,30.00,South,172,4.0,7.0,88,0.00,,,0.00,287,Wunderground v.1.15,2013-08-15 13:12:00,
2013-08-15 09:18:00,80.2,76.0,30.00,South,172,3.0,7.0,87,0.00,,,0.00,390,Wunderground v.1.15,2013-08-15 13:18:00,
2013-08-15 09:24:00,80.6,76.4,30.00,South,172,2.0,7.0,87,0.00,,,0.00,420,Wunderground v.1.15,2013-08-15 13:24:00,
2013-08-15 09:29:00,80.8,76.2,29.99,South,172,1.0,7.0,86,0.00,,,0.00,410,Wunderground v.1.15,2013-08-15 13:29:00,
2013-08-15 09:35:00,81.1,76.5,29.99,South,172,1.0,7.0,86,0.00,,,0.00,457,Wunderground v.1.15,2013-08-15 13:35:00,
2013-08-15 09:40:00,81.4,76.5,30.00,South,172,0.0,0.0,85,0.00,,,0.00,497,Wunderground v.1.15,2013-08-15 13:40:00,
2013-08-15 09:45:00,81.8,76.8,30.00,South,172,0.0,2.0,85,0.00,,,0.00,513,Wunderground v.1.15,2013-08-15 13:45:00,
2013-08-15 09:51:00,82.1,76.8,30.00,South,172,1.0,2.0,84,0.00,,,0.00,533,Wunderground v.1.15,2013-08-15 13:51:00,
2013-08-15 09:56:00,82.1,76.4,30.00,South,172,1.0,2.0,83,0.00,,,0.00,540,Wunderground v.1.15,2013-08-15 13:56:00,
2013-08-15 10:01:00,82.6,76.9,30.00,South,172,0.0,8.0,83,0.00,,,0.00,561,Wunderground v.1.15,2013-08-15 14:01:00,
2013-08-15 10:07:00,83.1,77.8,30.00,South,172,0.0,8.0,84,0.00,,,0.00,577,Wunderground v.1.15,2013-08-15 14:07:00,
2013-08-15 10:13:00,83.6,77.5,30.00,South,172,0.0,8.0,82,0.00,,,0.00,601,Wunderground v.1.15,2013-08-15 14:13:00,
2013-08-15 10:19:00,84.2,78.1,30.00,South,172,0.0,8.0,82,0.00,,,0.00,622,Wunderground v.1.15,2013-08-15 14:19:00,
2013-08-15 10:24:00,84.3,78.2,29.99,South,172,0.0,8.0,82,0.00,,,0.00,638,Wunderground v.1.15,2013-08-15 14:24:00,
2013-08-15 10:29:00,84.5,78.0,29.99,South,172,0.0,8.0,81,0.00,,,0.00,657,Wunderground v.1.15,2013-08-15 14:29:00,
2013-08-15 10:34:00,84.6,77.4,29.99,South,172,0.0,8.0,79,0.00,,,0.00,677,Wunderground v.1.15,2013-08-15 14:34:00,
2013-08-15 10:40:00,84.7,78.2,29.99,South,172,0.0,0.0,81,0.00,,,0.00,691,Wunderground v.1.15,2013-08-15 14:40:00,
2013-08-15 10:45:00,85.1,79.0,29.99,South,172,1.0,4.0,82,0.00,,,0.00,733,Wunderground v.1.15,2013-08-15 14:45:00,
2013-08-15 10:51:00,85.1,77.5,30.00,South,172,3.0,3.0,78,0.00,,,0.00,615,Wunderground v.1.15,2013-08-15 14:51:00,
2013-08-15 10:56:00,85.1,77.1,30.00,South,172,3.0,3.0,77,0.00,,,0.00,570,Wunderground v.1.15,2013-08-15 14:56:00,
2013-08-15 11:02:00,85.5,77.5,30.00,South,172,1.0,3.0,77,0.00,,,0.00,821,Wunderground v.1.15,2013-08-15 15:02:00,
2013-08-15 11:07:00,85.6,77.6,30.00,South,172,3.0,4.0,77,0.00,,,0.00,193,Wunderground v.1.15,2013-08-15 15:07:00,
2013-08-15 11:13:00,85.7,77.7,30.00,South,172,3.0,3.0,77,0.00,,,0.00,851,Wunderground v.1.15,2013-08-15 15:13:00,
2013-08-15 11:18:00,86.1,78.0,30.00,South,172,1.0,3.0,77,0.00,,,0.00,870,Wunderground v.1.15,2013-08-15 15:18:00,
2013-08-15 11:23:00,86.1,78.4,30.00,South,188,2.0,4.0,78,0.00,,,0.00,216,Wunderground v.1.15,2013-08-15 15:23:00,
2013-08-15 11:29:00,85.9,77.1,30.00,South,188,3.0,5.0,75,0.00,,,0.00,223,Wunderground v.1.15,2013-08-15 15:29:00,
2013-08-15 11:35:00,85.8,77.4,30.00,South,186,4.0,5.0,76,0.00,,,0.00,257,Wunderground v.1.15,2013-08-15 15:35:00,
2013-08-15 11:40:00,85.7,78.0,30.00,South,186,4.0,4.0,78,0.00,,,0.00,283,Wunderground v.1.15,2013-08-15 15:40:00,
2013-08-15 11:46:00,86.3,78.6,30.00,SSW,203,3.0,7.0,78,0.00,,,0.00,970,Wunderground v.1.15,2013-08-15 15:46:00,
2013-08-15 11:51:00,86.5,78.0,30.00,SSW,201,3.0,3.0,76,0.00,,,0.00,239,Wunderground v.1.15,2013-08-15 15:51:00,
2013-08-15 11:56:00,86.5,78.4,30.00,SSW,202,5.0,10.0,77,0.00,,,0.00,997,Wunderground v.1.15,2013-08-15 15:56:00,
2013-08-15 12:01:00,86.5,77.6,30.00,SSE,157,5.0,6.0,75,0.00,,,0.00,283,Wunderground v.1.15,2013-08-15 16:01:00,
2013-08-15 12:07:00,86.8,78.7,29.99,North,354,2.0,6.0,77,0.00,,,0.00,954,Wunderground v.1.15,2013-08-15 16:07:00,
2013-08-15 12:12:00,87.2,77.9,29.99,South,188,3.0,7.0,74,0.00,,,0.00,925,Wunderground v.1.15,2013-08-15 16:12:00,
2013-08-15 12:18:00,86.9,77.2,29.99,South,187,6.0,10.0,73,0.00,,,0.00,947,Wunderground v.1.15,2013-08-15 16:18:00,
2013-08-15 12:24:00,86.7,76.6,29.99,South,188,6.0,7.0,72,0.00,,,0.00,942,Wunderground v.1.15,2013-08-15 16:24:00,
2013-08-15 12:30:00,87.1,77.0,29.99,South,188,3.0,3.0,72,0.00,,,0.00,962,Wunderground v.1.15,2013-08-15 16:30:00,
2013-08-15 12:35:00,87.7,78.0,29.98,SSW,211,2.0,6.0,73,0.00,,,0.00,276,Wunderground v.1.15,2013-08-15 16:35:00,
2013-08-15 12:40:00,88.0,78.7,29.98,SSW,207,4.0,8.0,74,0.00,,,0.00,974,Wunderground v.1.15,2013-08-15 16:40:00,
2013-08-15 12:46:00,88.2,78.0,29.98,SW,219,5.0,8.0,72,0.00,,,0.00,995,Wunderground v.1.15,2013-08-15 16:46:00,
2013-08-15 12:52:00,88.4,78.2,29.98,SW,217,5.0,6.0,72,0.00,,,0.00,1039,Wunderground v.1.15,2013-08-15 16:52:00,
2013-08-15 12:57:00,88.5,78.3,29.98,SW,228,4.0,8.0,72,0.00,,,0.00,1055,Wunderground v.1.15,2013-08-15 16:57:00,
2013-08-15 13:02:00,88.6,78.4,29.98,SSW,200,5.0,11.0,72,0.00,,,0.00,1018,Wunderground v.1.15,2013-08-15 17:02:00,
2013-08-15 13:08:00,88.2,77.6,29.98,South,186,8.0,12.0,71,0.00,,,0.00,1028,Wunderground v.1.15,2013-08-15 17:08:00,
2013-08-15 13:14:00,88.1,77.9,29.97,South,175,6.0,11.0,72,0.00,,,0.00,986,Wunderground v.1.15,2013-08-15 17:14:00,
2013-08-15 13:21:00,88.3,78.5,29.97,SSW,210,7.0,11.0,73,0.00,,,0.00,1132,Wunderground v.1.15,2013-08-15 17:21:00,
2013-08-15 13:27:00,88.7,77.7,29.97,SSW,213,8.0,11.0,70,0.00,,,0.00,1102,Wunderground v.1.15,2013-08-15 17:27:00,
2013-08-15 13:33:00,89.1,77.6,29.97,SSW,192,7.0,11.0,69,0.00,,,0.00,1097,Wunderground v.1.15,2013-08-15 17:33:00,
2013-08-15 13:38:00,89.1,77.2,29.97,SW,215,6.0,11.0,68,0.00,,,0.00,1129,Wunderground v.1.15,2013-08-15 17:38:00,
2013-08-15 13:47:00,89.2,77.7,29.96,South,183,7.0,11.0,69,0.00,,,0.00,1028,Wunderground v.1.15,2013-08-15 17:47:00,
2013-08-15 13:53:00,89.1,77.2,29.96,SSW,193,8.0,11.0,68,0.00,,,0.00,1016,Wunderground v.1.15,2013-08-15 17:53:00,
2013-08-15 13:58:00,89.1,76.7,29.96,SSW,194,8.0,11.0,67,0.00,,,0.00,1011,Wunderground v.1.15,2013-08-15 17:58:00,
2013-08-15 14:04:00,89.1,75.8,29.96,SSW,199,10.0,13.0,65,0.00,,,0.00,1032,Wunderground v.1.15,2013-08-15 18:04:00,
2013-08-15 14:10:00,89.3,76.0,29.95,SSW,198,8.0,8.0,65,0.00,,,0.00,1000,Wunderground v.1.15,2013-08-15 18:10:00,
2013-08-15 14:16:00,89.7,75.9,29.95,South,191,5.0,13.0,64,0.00,,,0.00,979,Wunderground v.1.15,2013-08-15 18:16:00,
2013-08-15 14:21:00,89.7,73.5,29.95,SSW,194,6.0,13.0,59,0.00,,,0.00,965,Wunderground v.1.15,2013-08-15 18:21:00,
2013-08-15 14:27:00,90.3,75.0,29.95,SSW,200,4.0,13.0,61,0.00,,,0.00,962,Wunderground v.1.15,2013-08-15 18:27:00,
2013-08-15 14:32:00,90.4,75.1,29.95,SSW,204,6.0,13.0,61,0.00,,,0.00,954,Wunderground v.1.15,2013-08-15 18:32:00,
2013-08-15 14:38:00,90.4,75.1,29.95,South,188,8.0,13.0,61,0.00,,,0.00,954,Wunderground v.1.15,2013-08-15 18:38:00,
2013-08-15 14:43:00,90.2,75.4,29.95,South,189,8.0,11.0,62,0.00,,,0.00,963,Wunderground v.1.15,2013-08-15 18:43:00,
2013-08-15 14:49:00,90.3,75.5,29.94,SSW,196,8.0,12.0,62,0.00,,,0.00,1005,Wunderground v.1.15,2013-08-15 18:49:00,
2013-08-15 14:55:00,90.2,75.9,29.94,SSW,207,7.0,11.0,63,0.00,,,0.00,954,Wunderground v.1.15,2013-08-15 18:55:00,
2013-08-15 15:03:00,90.3,75.0,29.94,SSW,194,8.0,14.0,61,0.00,,,0.00,933,Wunderground v.1.15,2013-08-15 19:03:00,
2013-08-15 15:09:00,90.2,76.4,29.93,South,187,7.0,14.0,64,0.00,,,0.00,977,Wunderground v.1.15,2013-08-15 19:09:00,
2013-08-15 15:16:00,90.3,77.4,29.93,SW,222,7.0,14.0,66,0.00,,,0.00,963,Wunderground v.1.15,2013-08-15 19:16:00,
2013-08-15 15:21:00,90.6,76.7,29.93,SW,218,8.0,14.0,64,0.00,,,0.00,889,Wunderground v.1.15,2013-08-15 19:21:00,
2013-08-15 15:27:00,91.3,76.5,29.93,SSW,211,6.0,14.0,62,0.00,,,0.00,882,Wunderground v.1.15,2013-08-15 19:27:00,
2013-08-15 15:34:00,91.3,76.0,29.92,SW,218,7.0,14.0,61,0.00,,,0.00,895,Wunderground v.1.15,2013-08-15 19:34:00,
2013-08-15 15:40:00,91.3,76.0,29.92,SSW,210,7.0,7.0,61,0.00,,,0.00,870,Wunderground v.1.15,2013-08-15 19:40:00,
2013-08-15 15:45:00,91.1,77.2,29.92,South,170,5.0,8.0,64,0.00,,,0.00,870,Wunderground v.1.15,2013-08-15 19:45:00,
2013-08-15 15:50:00,91.0,76.7,29.92,SSW,206,6.0,6.0,63,0.00,,,0.00,886,Wunderground v.1.15,2013-08-15 19:50:00,
2013-08-15 15:56:00,91.3,77.4,29.92,SSW,209,7.0,11.0,64,0.00,,,0.00,837,Wunderground v.1.15,2013-08-15 19:56:00,
2013-08-15 16:03:00,91.4,77.0,29.91,South,184,9.0,13.0,63,0.00,,,0.00,809,Wunderground v.1.15,2013-08-15 20:03:00,
2013-08-15 16:09:00,91.2,76.4,29.91,South,185,7.0,13.0,62,0.00,,,0.00,802,Wunderground v.1.15,2013-08-15 20:09:00,
2013-08-15 16:16:00,91.4,76.5,29.90,SSW,207,5.0,13.0,62,0.00,,,0.00,835,Wunderground v.1.15,2013-08-15 20:16:00,
2013-08-15 16:22:00,91.2,77.8,29.90,South,175,7.0,13.0,65,0.00,,,0.00,782,Wunderground v.1.15,2013-08-15 20:22:00,
2013-08-15 16:28:00,91.0,75.7,29.90,SSW,196,8.0,13.0,61,0.00,,,0.00,798,Wunderground v.1.15,2013-08-15 20:28:00,
2013-08-15 16:34:00,90.9,78.0,29.90,SSW,194,8.0,13.0,66,0.00,,,0.00,768,Wunderground v.1.15,2013-08-15 20:34:00,
2013-08-15 16:39:00,91.0,78.1,29.91,South,184,9.0,13.0,66,0.00,,,0.00,761,Wunderground v.1.15,2013-08-15 20:39:00,
2013-08-15 16:45:00,90.9,76.1,29.91,South,190,9.0,11.0,62,0.00,,,0.00,729,Wunderground v.1.15,2013-08-15 20:45:00,
2013-08-15 16:50:00,90.9,77.0,29.91,South,177,8.0,14.0,64,0.00,,,0.00,123,Wunderground v.1.15,2013-08-15 20:50:00,
2013-08-15 16:55:00,90.7,77.8,29.91,SW,217,8.0,14.0,66,0.00,,,0.00,193,Wunderground v.1.15,2013-08-15 20:55:00,
2013-08-15 17:00:00,90.9,78.4,29.91,South,190,8.0,10.0,67,0.00,,,0.00,693,Wunderground v.1.15,2013-08-15 21:00:00,
2013-08-15 17:06:00,91.1,77.7,29.91,SSW,206,9.0,14.0,65,0.00,,,0.00,162,Wunderground v.1.15,2013-08-15 21:06:00,
2013-08-15 17:11:00,90.9,77.5,29.91,SSW,194,10.0,14.0,65,0.00,,,0.00,657,Wunderground v.1.15,2013-08-15 21:11:00,
2013-08-15 17:16:00,91.2,77.8,29.90,SSW,204,8.0,14.0,65,0.00,,,0.00,659,Wunderground v.1.15,2013-08-15 21:16:00,
2013-08-15 17:21:00,91.4,77.5,29.90,SSW,206,7.0,14.0,64,0.00,,,0.00,624,Wunderground v.1.15,2013-08-15 21:21:00,
2013-08-15 17:27:00,91.4,78.0,29.91,SSW,192,9.0,14.0,65,0.00,,,0.00,633,Wunderground v.1.15,2013-08-15 21:27:00,
2013-08-15 17:32:00,91.0,79.0,29.91,SSW,196,10.0,20.0,68,0.00,,,0.00,206,Wunderground v.1.15,2013-08-15 21:32:00,
2013-08-15 17:39:00,89.5,80.1,29.91,SSW,192,16.0,20.0,74,0.00,,,0.00,165,Wunderground v.1.15,2013-08-15 21:39:00,
2013-08-15 17:44:00,88.9,79.1,29.91,South,187,17.0,21.0,73,0.00,,,0.00,545,Wunderground v.1.15,2013-08-15 21:44:00,
2013-08-15 17:50:00,88.6,79.7,29.91,SSW,204,16.0,16.0,75,0.00,,,0.00,399,Wunderground v.1.15,2013-08-15 21:50:00,
2013-08-15 17:55:00,88.7,79.3,29.91,SSW,213,15.0,16.0,74,0.00,,,0.00,366,Wunderground v.1.15,2013-08-15 21:55:00,
2013-08-15 18:02:00,88.7,79.8,29.92,SSW,200,15.0,18.0,75,0.00,,,0.00,176,Wunderground v.1.15,2013-08-15 22:02:00,
2013-08-15 18:08:00,88.6,79.2,29.92,SSW,202,17.0,21.0,74,0.00,,,0.00,104,Wunderground v.1.15,2013-08-15 22:08:00,
2013-08-15 18:13:00,88.4,78.6,29.92,SSW,213,15.0,21.0,73,0.00,,,0.00,88,Wunderground v.1.15,2013-08-15 22:13:00,
2013-08-15 18:19:00,88.4,79.1,29.91,SSW,202,13.0,21.0,74,0.00,,,0.00,76,Wunderground v.1.15,2013-08-15 22:19:00,
2013-08-15 18:24:00,88.2,78.4,29.92,SW,218,13.0,21.0,73,0.00,,,0.00,70,Wunderground v.1.15,2013-08-15 22:24:00,
2013-08-15 18:30:00,87.8,78.9,29.92,SSW,209,13.0,21.0,75,0.00,,,0.00,65,Wunderground v.1.15,2013-08-15 22:30:00,
2013-08-15 18:35:00,87.5,79.0,29.92,SW,216,14.0,21.0,76,0.00,,,0.00,65,Wunderground v.1.15,2013-08-15 22:35:00,
2013-08-15 18:41:00,87.2,78.7,29.92,SW,215,13.0,13.0,76,0.00,,,0.00,54,Wunderground v.1.15,2013-08-15 22:41:00,
2013-08-15 18:46:00,87.1,78.6,29.92,SW,219,12.0,14.0,76,0.00,,,0.00,47,Wunderground v.1.15,2013-08-15 22:46:00,
2013-08-15 18:52:00,87.1,78.6,29.92,SSW,213,13.0,13.0,76,0.00,,,0.00,42,Wunderground v.1.15,2013-08-15 22:52:00,
2013-08-15 18:57:00,87.2,77.9,29.93,SW,214,12.0,13.0,74,0.00,,,0.00,32,Wunderground v.1.15,2013-08-15 22:57:00,
2013-08-15 19:03:00,87.1,78.6,29.94,SW,219,11.0,23.0,76,0.00,,,0.00,19,Wunderground v.1.15,2013-08-15 23:03:00,
2013-08-15 19:08:00,87.2,79.5,29.94,SW,234,11.0,23.0,78,0.00,,,0.00,14,Wunderground v.1.15,2013-08-15 23:08:00,
2013-08-15 19:13:00,86.8,79.5,29.94,WSW,254,12.0,23.0,79,0.00,,,0.00,11,Wunderground v.1.15,2013-08-15 23:13:00,
2013-08-15 19:19:00,86.3,79.4,29.94,West,260,13.0,23.0,80,0.00,,,0.00,9,Wunderground v.1.15,2013-08-15 23:19:00,
2013-08-15 19:24:00,85.7,78.8,29.94,WSW,255,11.0,23.0,80,0.00,,,0.00,9,Wunderground v.1.15,2013-08-15 23:24:00,
2013-08-15 19:29:00,85.2,78.3,29.93,WSW,255,8.0,23.0,80,0.00,,,0.00,9,Wunderground v.1.15,2013-08-15 23:29:00,
2013-08-15 19:34:00,84.9,78.4,29.93,WSW,245,6.0,23.0,81,0.00,,,0.00,9,Wunderground v.1.15,2013-08-15 23:34:00,
2013-08-15 19:40:00,84.8,78.7,29.94,WSW,245,6.0,7.0,82,0.00,,,0.00,9,Wunderground v.1.15,2013-08-15 23:40:00,
2013-08-15 19:46:00,84.7,78.2,29.95,WSW,245,6.0,7.0,81,0.00,,,0.00,5,Wunderground v.1.15,2013-08-15 23:46:00,
2013-08-15 19:51:00,84.6,77.4,29.95,SSE,152,5.0,5.0,79,0.00,,,0.00,0,Wunderground v.1.15,2013-08-15 23:51:00,
2013-08-15 19:56:00,84.3,77.5,29.96,SE,138,6.0,6.0,80,0.00,,,0.00,0,Wunderground v.1.15,2013-08-15 23:56:00,
2013-08-15 20:02:00,84.0,77.5,29.97,SE,128,5.0,18.0,81,0.00,,,0.00,0,Wunderground v.1.15,2013-08-16 00:02:00,
2013-08-15 20:07:00,83.8,78.1,29.97,SE,128,4.0,18.0,83,0.00,,,0.00,0,Wunderground v.1.15,2013-08-16 00:07:00,
2013-08-15 20:13:00,83.5,77.8,29.98,SE,138,5.0,18.0,83,0.00,,,0.00,0,Wunderground v.1.15,2013-08-16 00:13:00,
2013-08-15 20:18:00,83.1,77.4,29.98,ESE,107,6.0,18.0,83,0.00,,,0.00,0,Wunderground v.1.15,2013-08-16 00:18:00,
2013-08-15 20:24:00,82.7,77.0,29.98,ESE,122,5.0,18.0,83,0.00,,,0.00,0,Wunderground v.1.15,2013-08-16 00:24:00,
2013-08-15 20:30:00,82.5,77.2,29.98,SE,128,5.0,5.0,84,0.00,,,0.00,0,Wunderground v.1.15,2013-08-16 00:30:00,
2013-08-15 20:35:00,82.4,77.4,29.98,SE,138,5.0,18.0,85,0.00,,,0.00,0,Wunderground v.1.15,2013-08-16 00:35:00,
2013-08-15 20:41:00,82.3,77.3,29.98,SSE,150,5.0,5.0,85,0.00,,,0.00,0,Wunderground v.1.15,2013-08-16 00:41:00,
2013-08-15 20:47:00,82.3,77.3,29.99,SE,142,4.0,5.0,85,0.00,,,0.00,0,Wunderground v.1.15,2013-08-16 00:47:00,
2013-08-15 20:52:00,82.1,77.1,29.99,SE,128,4.0,8.0,85,0.00,,,0.00,0,Wunderground v.1.15,2013-08-16 00:52:00,
2013-08-15 20:58:00,81.8,77.2,29.99,ESE,120,5.0,8.0,86,0.00,,,0.00,0,Wunderground v.1.15,2013-08-16 00:58:00,
2013-08-15 21:04:00,81.5,76.9,29.99,ESE,119,5.0,13.0,86,0.00,,,0.00,0,Wunderground v.1.15,2013-08-16 01:04:00,
2013-08-15 21:09:00,81.4,77.2,29.99,ESE,119,5.0,13.0,87,0.00,,,0.00,0,Wunderground v.1.15,2013-08-16 01:09:00,
2013-08-15 21:15:00,81.2,77.0,29.99,ESE,119,3.0,13.0,87,0.00,,,0.00,0,Wunderground v.1.15,2013-08-16 01:15:00,
2013-08-15 21:21:00,81.2,77.0,30.00,ESE,119,1.0,13.0,87,0.00,,,0.00,0,Wunderground v.1.15,2013-08-16 01:21:00,
2013-08-15 21:27:00,81.2,77.0,30.00,ESE,119,1.0,13.0,87,0.00,,,0.00,0,Wunderground v.1.15,2013-08-16 01:27:00,
2013-08-15 21:37:00,81.1,76.9,30.00,ESE,117,3.0,13.0,87,0.00,,,0.00,0,Wunderground v.1.15,2013-08-16 01:37:00,
2013-08-15 21:42:00,81.1,76.9,30.01,ESE,117,2.0,3.0,87,0.00,,,0.00,0,Wunderground v.1.15,2013-08-16 01:42:00,
2013-08-15 21:47:00,81.1,77.2,30.01,ESE,117,1.0,3.0,88,0.00,,,0.00,0,Wunderground v.1.15,2013-08-16 01:47:00,
2013-08-15 21:53:00,81.1,77.2,30.01,ESE,117,0.0,0.0,88,0.00,,,0.00,0,Wunderground v.1.15,2013-08-16 01:53:00,
2013-08-15 21:58:00,81.0,77.1,30.01,ESE,117,0.0,0.0,88,0.00,,,0.00,0,Wunderground v.1.15,2013-08-16 01:58:00,
2013-08-15 22:04:00,81.0,77.1,30.01,ESE,117,0.0,8.0,88,0.00,,,0.00,0,Wunderground v.1.15,2013-08-16 02:04:00,
2013-08-15 22:10:00,80.9,77.4,30.01,ESE,117,1.0,8.0,89,0.00,,,0.00,0,Wunderground v.1.15,2013-08-16 02:10:00,
2013-08-15 22:15:00,80.8,77.3,30.01,ESE,117,2.0,8.0,89,0.00,,,0.00,0,Wunderground v.1.15,2013-08-16 02:15:00,
2013-08-15 22:21:00,80.7,77.2,30.02,ESE,117,1.0,8.0,89,0.00,,,0.00,0,Wunderground v.1.15,2013-08-16 02:21:00,
2013-08-15 22:26:00,80.5,77.0,30.02,ESE,117,1.0,8.0,89,0.00,,,0.00,0,Wunderground v.1.15,2013-08-16 02:26:00,
2013-08-15 22:31:00,80.3,76.8,30.02,ESE,117,1.0,8.0,89,0.00,,,0.00,0,Wunderground v.1.15,2013-08-16 02:31:00,
2013-08-15 22:39:00,80.2,76.7,30.02,ESE,117,0.0,8.0,89,0.00,,,0.00,0,Wunderground v.1.15,2013-08-16 02:39:00,
2013-08-15 22:45:00,80.1,76.6,30.02,ESE,117,0.0,0.0,89,0.00,,,0.00,0,Wunderground v.1.15,2013-08-16 02:45:00,
2013-08-15 22:50:00,80.0,76.5,30.02,ESE,117,0.0,0.0,89,0.00,,,0.00,0,Wunderground v.1.15,2013-08-16 02:50:00,
2013-08-15 22:55:00,79.9,76.7,30.02,ESE,117,0.0,0.0,90,0.00,,,0.00,0,Wunderground v.1.15,2013-08-16 02:55:00,
2013-08-15 23:01:00,79.8,76.6,30.02,ESE,117,0.0,4.0,90,0.00,,,0.00,0,Wunderground v.1.15,2013-08-16 03:01:00,
2013-08-15 23:06:00,79.7,76.5,30.01,ESE,117,0.0,4.0,90,0.00,,,0.00,0,Wunderground v.1.15,2013-08-16 03:06:00,
2013-08-15 23:12:00,79.6,76.4,30.01,ESE,117,0.0,4.0,90,0.00,,,0.00,0,Wunderground v.1.15,2013-08-16 03:12:00,
2013-08-15 23:17:00,79.6,76.4,30.01,ESE,117,0.0,4.0,90,0.00,,,0.00,0,Wunderground v.1.15,2013-08-16 03:17:00,
2013-08-15 23:22:00,79.6,76.4,30.01,ESE,117,0.0,4.0,90,0.00,,,0.00,0,Wunderground v.1.15,2013-08-16 03:22:00,
2013-08-15 23:27:00,79.6,76.4,30.01,ESE,117,0.0,4.0,90,0.00,,,0.00,0,Wunderground v.1.15,2013-08-16 03:27:00,
2013-08-15 23:33:00,79.7,76.8,30.01,ESE,117,0.0,4.0,91,0.00,,,0.00,0,Wunderground v.1.15,2013-08-16 03:33:00,
2013-08-15 23:39:00,79.9,77.0,30.01,ESE,117,1.0,4.0,91,0.00,,,0.00,0,Wunderground v.1.15,2013-08-16 03:39:00,
2013-08-15 23:44:00,80.0,77.1,30.01,ESE,117,2.0,4.0,91,0.00,,,0.00,0,Wunderground v.1.15,2013-08-16 03:44:00,
2013-08-15 23:49:00,80.3,77.4,30.01,ESE,117,3.0,4.0,91,0.00,,,0.00,0,Wunderground v.1.15,2013-08-16 03:49:00,
2013-08-15 23:55:00,80.2,77.0,30.01,ESE,117,1.0,4.0,90,0.00,,,0.00,0,Wunderground v.1.15,2013-08-16 03:55:00,